Time;durP1;ratioP1;P1;durP2;ratioP2;P2;SDS_P1;SDS_P2;PMS_P1;PMS_P2;Temp;Humidity;BMP_temperature;BMP_pressure;BME280_temperature;BME280_humidity;BME280_pressure;Samples;Min_cycle;Max_cycle;Signal;HPM_P1;HPM_P2
2022/05/03 00:00:07;;;;;;;10.52;7.00;;;12.20;99.90;;;;;;5056173;28;20025;-56
2022/05/03 00:02:41;;;;;;;10.63;6.90;;;12.20;99.90;;;;;;5073283;28;20027;-59
2022/05/03 00:05:15;;;;;;;8.25;6.45;;;12.10;99.90;;;;;;5055118;28;20048;-59
2022/05/03 00:08:09;;;;;;;10.50;7.28;;;12.10;99.90;;;;;;5055037;28;20026;-59
2022/05/03 00:10:53;;;;;;;11.00;7.38;;;12.10;99.90;;;;;;5013219;28;20072;-59
2022/05/03 00:13:21;;;;;;;11.45;7.43;;;12.20;99.90;;;;;;5055172;28;20020;-59
2022/05/03 00:15:50;;;;;;;17.10;7.35;;;12.20;99.90;;;;;;5073331;28;20025;-60
2022/05/03 00:18:15;;;;;;;12.02;7.40;;;12.20;99.90;;;;;;5054887;28;20017;-60
2022/05/03 00:20:43;;;;;;;11.55;7.25;;;12.10;99.90;;;;;;5055200;28;20023;-60
2022/05/03 00:23:09;;;;;;;12.45;6.82;;;12.10;99.90;;;;;;5072767;28;20091;-60
2022/05/03 00:25:35;;;;;;;12.43;6.82;;;12.10;99.90;;;;;;5073243;28;20051;-59
2022/05/03 00:28:02;;;;;;;11.02;7.22;;;12.10;99.90;;;;;;5072970;28;20025;-59
2022/05/03 00:30:28;;;;;;;10.70;7.60;;;12.10;99.90;;;;;;5055173;28;20021;-58
2022/05/03 00:32:54;;;;;;;12.02;6.35;;;12.10;99.90;;;;;;5072834;28;20023;-60
2022/05/03 00:35:21;;;;;;;9.50;6.50;;;12.20;99.90;;;;;;5054868;28;20083;-60
2022/05/03 00:37:47;;;;;;;10.40;7.70;;;12.20;99.90;;;;;;5055100;28;20387;-59
2022/05/03 00:40:17;;;;;;;13.02;6.85;;;12.10;99.90;;;;;;5054858;28;20025;-60
2022/05/03 00:42:57;;;;;;;10.32;7.05;;;12.10;99.90;;;;;;5055350;28;20021;-60
2022/05/03 00:45:39;;;;;;;8.90;7.03;;;12.10;99.90;;;;;;5072714;28;20502;-60
2022/05/03 00:48:29;;;;;;;9.43;6.25;;;12.20;99.90;;;;;;5054774;28;20025;-59
2022/05/03 00:51:18;;;;;;;8.23;6.35;;;12.20;99.90;;;;;;5055380;28;20031;-60
2022/05/03 00:53:53;;;;;;;9.18;6.30;;;12.20;99.90;;;;;;5054564;28;20029;-60
2022/05/03 00:56:54;;;;;;;7.80;6.30;;;12.20;99.90;;;;;;5072735;28;20099;-60
2022/05/03 00:59:22;;;;;;;9.40;7.03;;;12.20;99.90;;;;;;5055547;28;20032;-60
2022/05/03 01:02:04;;;;;;;11.10;6.85;;;12.20;99.90;;;;;;5073038;28;20039;-60
2022/05/03 01:05:06;;;;;;;10.63;7.32;;;12.30;99.90;;;;;;5055317;28;20036;-58
2022/05/03 01:07:35;;;;;;;;;;;12.20;99.90;;;;;;5073102;28;20108;-60
2022/05/03 01:10:10;;;;;;;8.02;5.90;;;12.30;99.90;;;;;;5054695;28;19966;-58
2022/05/03 01:12:56;;;;;;;9.40;6.75;;;12.30;99.90;;;;;;5054423;28;20116;-60
2022/05/03 01:15:31;;;;;;;9.63;6.85;;;12.30;99.90;;;;;;5055023;28;20032;-59
2022/05/03 01:18:21;;;;;;;13.50;7.03;;;12.30;99.90;;;;;;5072393;28;20016;-59
2022/05/03 01:20:50;;;;;;;11.65;7.30;;;12.30;99.90;;;;;;5054257;28;20020;-60
2022/05/03 01:23:51;;;;;;;8.98;6.25;;;12.30;99.90;;;;;;5054714;28;20111;-59
2022/05/03 01:26:37;;;;;;;9.80;6.87;;;12.30;99.90;;;;;;5057810;28;20059;-59
2022/05/03 01:29:23;;;;;;;9.27;6.97;;;12.30;99.90;;;;;;5057966;28;20258;-59
2022/05/03 01:31:53;;;;;;;10.23;7.03;;;12.30;99.90;;;;;;5075924;28;20021;-60
2022/05/03 01:34:23;;;;;;;11.40;6.93;;;12.30;99.90;;;;;;5057987;28;20040;-60
2022/05/03 01:36:59;;;;;;;9.85;7.10;;;12.30;99.90;;;;;;5057916;28;20553;-59
2022/05/03 01:39:48;;;;;;;10.18;7.18;;;12.20;99.90;;;;;;5075611;28;20099;-57
2022/05/03 01:42:23;;;;;;;10.07;6.57;;;12.30;99.90;;;;;;5075769;28;20034;-60
2022/05/03 01:45:07;;;;;;;12.57;7.05;;;12.20;99.90;;;;;;5057608;28;20107;-60
2022/05/03 01:47:55;;;;;;;7.97;6.57;;;12.30;99.90;;;;;;5057494;28;20031;-58
2022/05/03 01:50:33;;;;;;;9.15;6.45;;;12.30;99.90;;;;;;5057742;28;20029;-60
2022/05/03 01:53:31;;;;;;;9.95;6.88;;;12.40;99.90;;;;;;5075340;28;20561;-60
2022/05/03 01:56:06;;;;;;;11.65;7.63;;;12.40;99.90;;;;;;5020303;28;20109;-59
2022/05/03 01:58:53;;;;;;;11.43;7.80;;;12.40;99.90;;;;;;5075552;28;20497;-60
2022/05/03 02:01:54;;;;;;;12.88;6.78;;;12.40;99.90;;;;;;5057516;28;20081;-60
2022/05/03 02:04:46;;;;;;;10.52;7.05;;;12.30;99.90;;;;;;4958059;28;20035;-60
2022/05/03 02:07:17;;;;;;;;;;;12.40;99.90;;;;;;5073074;28;20414;-59
2022/05/03 02:10:28;;;;;;;11.20;7.07;;;12.40;99.90;;;;;;5075028;28;19911;-59
2022/05/03 02:12:57;;;;;;;9.52;6.60;;;12.30;99.90;;;;;;4986169;28;20035;-57
2022/05/03 02:15:42;;;;;;;11.02;6.80;;;12.30;99.90;;;;;;5057022;28;20088;-59
2022/05/03 02:18:30;;;;;;;8.98;6.60;;;12.30;99.90;;;;;;5057455;28;20029;-59
2022/05/03 02:21:11;;;;;;;15.75;7.35;;;12.40;99.90;;;;;;5057184;28;20020;-59
2022/05/03 02:23:49;;;;;;;13.65;6.88;;;12.40;99.90;;;;;;5057975;28;20052;-58
2022/05/03 02:26:31;;;;;;;10.38;6.75;;;12.40;99.90;;;;;;5057357;28;20128;-59
2022/05/03 02:29:36;;;;;;;9.30;6.50;;;12.40;99.90;;;;;;5056807;28;20047;-59
2022/05/03 02:32:03;;;;;;;8.13;5.90;;;12.40;99.90;;;;;;5056857;28;20025;-59
2022/05/03 02:34:46;;;;;;;9.00;6.18;;;12.50;99.90;;;;;;5056820;28;20021;-60
2022/05/03 02:37:22;;;;;;;8.82;6.22;;;12.50;99.90;;;;;;5074980;28;20016;-60
2022/05/03 02:40:09;;;;;;;10.50;6.38;;;12.50;99.90;;;;;;5074658;28;20017;-60
2022/05/03 02:42:36;;;;;;;12.23;6.70;;;12.50;99.90;;;;;;5056510;28;20115;-60
2022/05/03 02:45:03;;;;;;;11.27;7.25;;;12.40;99.90;;;;;;5056563;28;20173;-58
2022/05/03 02:47:34;;;;;;;10.13;6.45;;;12.30;99.90;;;;;;5056630;28;20029;-58
2022/05/03 02:50:08;;;;;;;9.37;7.33;;;12.30;99.90;;;;;;5056651;28;20115;-58
2022/05/03 02:52:58;;;;;;;13.23;7.05;;;12.30;99.90;;;;;;5074610;28;20274;-58
2022/05/03 02:55:29;;;;;;;10.57;6.88;;;12.30;99.90;;;;;;5074397;28;20073;-59
2022/05/03 02:58:04;;;;;;;9.85;6.75;;;12.30;99.90;;;;;;5056705;28;20056;-60
2022/05/03 03:03:58;;;;;;;11.68;7.28;;;12.30;99.90;;;;;;5074635;28;20055;-59
2022/05/03 03:06:28;;;;;;;9.95;6.50;;;12.20;99.90;;;;;;5074414;28;20111;-60
2022/05/03 03:08:55;;;;;;;10.77;7.22;;;12.30;99.90;;;;;;5056105;28;20020;-60
2022/05/03 03:11:53;;;;;;;9.43;7.15;;;12.20;99.90;;;;;;5074086;28;20020;-60
2022/05/03 03:14:21;;;;;;;11.05;6.60;;;12.20;99.90;;;;;;5018990;28;20102;-60
2022/05/03 03:17:07;;;;;;;14.55;7.47;;;12.10;99.90;;;;;;5055855;28;20035;-59
2022/05/03 03:19:50;;;;;;;9.23;6.82;;;12.10;99.90;;;;;;5055834;28;20027;-60
2022/05/03 03:22:16;;;;;;;12.60;6.95;;;12.10;99.90;;;;;;5055725;28;20035;-60
2022/05/03 03:24:42;;;;;;;11.70;7.55;;;12.10;99.90;;;;;;5055851;28;20020;-62
2022/05/03 03:27:12;;;;;;;12.20;7.32;;;12.10;99.90;;;;;;5073804;28;20099;-60
2022/05/03 03:29:39;;;;;;;10.70;7.38;;;12.10;99.90;;;;;;5056087;28;20360;-60
2022/05/03 03:32:09;;;;;;;10.93;7.00;;;12.20;99.90;;;;;;5073640;28;20035;-59
2022/05/03 03:34:39;;;;;;;10.02;6.95;;;12.20;99.90;;;;;;5073683;28;20025;-60
2022/05/03 03:37:07;;;;;;;10.68;7.40;;;12.20;99.90;;;;;;5055826;28;20060;-59
2022/05/03 03:39:34;;;;;;;10.23;6.72;;;12.20;99.90;;;;;;5055886;28;20021;-61
2022/05/03 03:42:06;;;;;;;8.27;6.18;;;12.20;99.90;;;;;;5055342;28;20495;-59
2022/05/03 03:44:33;;;;;;;9.88;7.32;;;12.20;99.90;;;;;;5055817;28;20475;-59
2022/05/03 03:47:00;;;;;;;12.60;8.32;;;12.20;99.90;;;;;;5073158;28;20032;-61
2022/05/03 03:49:29;;;;;;;10.85;6.95;;;12.20;99.90;;;;;;5073422;28;20158;-60
2022/05/03 03:51:56;;;;;;;8.80;6.93;;;12.20;99.90;;;;;;5073033;28;20032;-61
2022/05/03 03:54:24;;;;;;;10.25;6.60;;;12.20;99.90;;;;;;5073716;28;20075;-57
2022/05/03 03:56:51;;;;;;;10.10;7.35;;;12.20;99.90;;;;;;5073180;28;20020;-60
2022/05/03 03:59:18;;;;;;;11.55;6.90;;;12.20;99.90;;;;;;5055203;28;20036;-60
2022/05/03 04:01:44;;;;;;;10.25;6.57;;;12.30;99.90;;;;;;5055737;28;20031;-60
2022/05/03 04:04:11;;;;;;;12.77;7.28;;;12.20;99.90;;;;;;5055139;28;20116;-60
2022/05/03 04:06:37;;;;;;;9.70;6.97;;;12.20;99.90;;;;;;5055009;28;20031;-60
2022/05/03 04:09:03;;;;;;;10.80;7.47;;;12.20;99.90;;;;;;5055047;28;20056;-60
2022/05/03 04:11:44;;;;;;;12.43;6.70;;;12.20;99.90;;;;;;5054988;28;20107;-60
2022/05/03 04:14:11;;;;;;;12.45;6.35;;;12.30;99.90;;;;;;5054981;28;20029;-60
2022/05/03 04:16:37;;;;;;;11.55;7.60;;;12.30;99.90;;;;;;5054846;28;20025;-60
2022/05/03 04:19:03;;;;;;;9.45;7.15;;;12.30;99.90;;;;;;5072749;28;20063;-60
2022/05/03 04:21:28;;;;;;;18.25;7.15;;;12.30;99.90;;;;;;5072751;28;20021;-60
2022/05/03 04:23:54;;;;;;;13.70;6.93;;;12.30;99.90;;;;;;5072799;28;20052;-60
2022/05/03 04:26:20;;;;;;;11.07;7.30;;;12.30;99.90;;;;;;5072822;28;20037;-60
2022/05/03 04:28:45;;;;;;;10.35;7.18;;;12.40;99.90;;;;;;5072766;28;20048;-58
2022/05/03 04:31:11;;;;;;;11.77;7.72;;;12.40;99.90;;;;;;5054654;28;20020;-58
2022/05/03 04:33:37;;;;;;;13.90;8.38;;;12.40;99.90;;;;;;5055526;28;20036;-59
2022/05/03 04:36:04;;;;;;;14.13;7.82;;;12.40;99.90;;;;;;5055469;28;20021;-60
2022/05/03 04:38:29;;;;;;;14.93;7.18;;;12.50;99.90;;;;;;5055421;28;20021;-60
2022/05/03 04:41:02;;;;;;;12.90;8.23;;;12.50;99.90;;;;;;5055025;28;20124;-58
2022/05/03 04:43:28;;;;;;;10.52;6.95;;;12.60;99.90;;;;;;5055495;28;20029;-60
2022/05/03 04:45:54;;;;;;;14.48;8.00;;;12.60;99.90;;;;;;5055157;28;20020;-58
2022/05/03 04:48:20;;;;;;;14.68;8.25;;;12.60;99.90;;;;;;5054983;28;20029;-59
2022/05/03 04:50:47;;;;;;;11.75;7.43;;;12.70;99.90;;;;;;5054972;28;20466;-60
2022/05/03 04:53:13;;;;;;;10.98;6.30;;;12.70;99.90;;;;;;5073092;28;20021;-59
2022/05/03 04:55:40;;;;;;;9.43;7.07;;;12.70;99.90;;;;;;5073291;28;20025;-59
2022/05/03 04:58:06;;;;;;;11.52;7.25;;;12.80;99.90;;;;;;5055356;28;20024;-60
2022/05/03 05:00:32;;;;;;;9.57;7.32;;;12.80;99.90;;;;;;5058079;28;20024;-59
2022/05/03 05:02:58;;;;;;;14.90;6.88;;;12.90;99.90;;;;;;5058692;28;20123;-57
2022/05/03 05:05:23;;;;;;;15.20;7.03;;;12.90;99.90;;;;;;5058642;28;20059;-60
2022/05/03 05:07:49;;;;;;;13.38;7.53;;;13.00;99.90;;;;;;5076638;28;20052;-60
2022/05/03 05:10:24;;;;;;;11.68;8.00;;;13.00;99.90;;;;;;5058583;28;20036;-60
2022/05/03 05:12:54;;;;;;;11.73;7.05;;;13.10;99.90;;;;;;5076359;28;20028;-60
2022/05/03 05:15:25;;;;;;;9.27;6.05;;;13.10;99.90;;;;;;5076393;28;20390;-59
2022/05/03 05:17:53;;;;;;;8.02;5.63;;;13.20;99.90;;;;;;5058755;28;20025;-59
2022/05/03 05:20:18;;;;;;;10.00;6.63;;;13.20;99.90;;;;;;5076615;28;20020;-59
2022/05/03 05:22:45;;;;;;;11.60;6.72;;;13.30;99.90;;;;;;5076330;28;20039;-57
2022/05/03 05:25:10;;;;;;;11.00;6.75;;;13.30;99.90;;;;;;5058411;28;20020;-60
2022/05/03 05:27:36;;;;;;;11.38;6.28;;;13.30;99.90;;;;;;5058621;28;20031;-59
2022/05/03 05:30:03;;;;;;;8.02;6.07;;;13.30;99.90;;;;;;5058607;28;20033;-60
2022/05/03 05:32:29;;;;;;;13.10;6.10;;;13.40;99.90;;;;;;5058222;28;20024;-59
2022/05/03 05:34:55;;;;;;;7.93;6.10;;;13.40;99.90;;;;;;5058523;28;20027;-59
2022/05/03 05:37:20;;;;;;;11.65;6.05;;;13.50;99.90;;;;;;5058181;28;20028;-58
2022/05/03 05:39:46;;;;;;;10.50;6.15;;;13.60;99.90;;;;;;5076582;28;20020;-57
2022/05/03 05:42:12;;;;;;;11.95;6.53;;;13.60;99.90;;;;;;5057979;28;20029;-57
2022/05/03 05:44:38;;;;;;;10.02;6.70;;;13.70;99.90;;;;;;5075833;28;20031;-59
2022/05/03 05:47:07;;;;;;;12.38;7.95;;;13.70;99.90;;;;;;5057811;28;20032;-59
2022/05/03 05:49:32;;;;;;;12.98;7.93;;;13.80;99.90;;;;;;5075819;28;20027;-56
2022/05/03 05:54:43;;;;;;;7.78;5.00;;;13.80;99.90;;;;;;5076295;28;20094;-59
2022/05/03 05:57:09;;;;;;;14.52;7.78;;;14.00;99.90;;;;;;5057724;28;20027;-59
2022/05/03 05:59:35;;;;;;;11.45;6.93;;;13.90;99.90;;;;;;5075633;28;20029;-58
2022/05/03 06:02:01;;;;;;;10.18;7.20;;;13.80;99.90;;;;;;5075787;28;20025;-62
2022/05/03 06:04:29;;;;;;;10.23;6.50;;;13.90;99.90;;;;;;5057421;28;20032;-64
2022/05/03 06:06:57;;;;;;;13.32;7.40;;;14.00;99.90;;;;;;5075871;28;20021;-59
2022/05/03 06:09:23;;;;;;;9.55;6.38;;;14.10;99.90;;;;;;5057539;28;20166;-61
2022/05/03 06:11:49;;;;;;;13.60;6.72;;;14.10;99.90;;;;;;5057223;28;20078;-60
2022/05/03 06:14:14;;;;;;;13.57;7.28;;;14.20;99.90;;;;;;5057383;28;20028;-59
2022/05/03 06:16:56;;;;;;;10.77;6.50;;;14.10;99.90;;;;;;5057730;28;20020;-58
2022/05/03 06:19:22;;;;;;;9.95;5.97;;;14.10;99.90;;;;;;5075335;28;20021;-56
2022/05/03 06:22:23;;;;;;;10.75;6.95;;;14.20;99.90;;;;;;5057287;28;20105;-56
2022/05/03 06:24:50;;;;;;;11.45;6.95;;;14.30;99.90;;;;;;5057308;28;20047;-57
2022/05/03 06:27:16;;;;;;;11.85;6.22;;;14.40;99.90;;;;;;5075044;28;20021;-52
2022/05/03 06:29:42;;;;;;;10.25;6.35;;;14.40;99.90;;;;;;5057353;28;20024;-52
2022/05/03 06:32:10;;;;;;;10.77;5.50;;;14.50;99.90;;;;;;5056914;28;20139;-53
2022/05/03 06:34:39;;;;;;;11.60;7.07;;;14.60;99.90;;;;;;5075140;28;20032;-56
2022/05/03 06:37:05;;;;;;;7.03;5.07;;;14.40;99.90;;;;;;5074938;28;20479;-55
2022/05/03 06:39:31;;;;;;;9.20;5.88;;;14.60;99.90;;;;;;5074904;28;20029;-57
2022/05/03 06:41:57;;;;;;;13.15;7.35;;;14.80;99.90;;;;;;5056784;28;20024;-58
2022/05/03 06:44:23;;;;;;;8.90;6.40;;;15.00;99.90;;;;;;5057213;28;20115;-54
2022/05/03 06:46:49;;;;;;;11.15;6.38;;;15.10;99.90;;;;;;5056702;28;20029;-57
2022/05/03 06:49:15;;;;;;;12.43;6.70;;;15.10;99.90;;;;;;5074555;28;20028;-53
2022/05/03 06:51:41;;;;;;;11.48;6.75;;;15.30;99.90;;;;;;5056809;28;20028;-54
2022/05/03 06:54:07;;;;;;;8.80;6.05;;;15.40;99.90;;;;;;5074854;28;20108;-56
2022/05/03 06:56:35;;;;;;;13.07;6.75;;;15.40;99.90;;;;;;5074363;28;20091;-55
2022/05/03 06:59:06;;;;;;;11.77;6.85;;;15.70;99.90;;;;;;5056483;28;20021;-56
2022/05/03 07:01:32;;;;;;;15.63;7.68;;;15.90;99.90;;;;;;5056667;28;20028;-58
2022/05/03 07:03:58;;;;;;;10.73;6.72;;;16.10;99.90;;;;;;5056425;28;20039;-57
2022/05/03 07:06:23;;;;;;;11.40;6.85;;;16.30;99.90;;;;;;5074468;28;20032;-56
2022/05/03 07:08:49;;;;;;;8.98;6.40;;;16.20;99.90;;;;;;5056311;28;20181;-58
2022/05/03 07:11:15;;;;;;;10.55;5.53;;;16.40;99.90;;;;;;5057109;28;20024;-57
2022/05/03 07:13:41;;;;;;;17.65;7.13;;;16.50;99.90;;;;;;5074389;28;20047;-54
2022/05/03 07:16:06;;;;;;;10.43;6.68;;;16.70;99.90;;;;;;5056266;28;20065;-57
2022/05/03 07:24:01;;;;;;;9.57;6.07;;;16.60;99.90;;;;;;5074142;28;20047;-55
2022/05/03 07:26:27;;;;;;;8.90;6.40;;;16.80;99.90;;;;;;5056280;28;20024;-58
2022/05/03 07:28:53;;;;;;;8.43;5.72;;;17.00;99.90;;;;;;5073895;28;20028;-58
2022/05/03 07:31:19;;;;;;;8.68;6.18;;;17.10;99.90;;;;;;5073762;28;20025;-58
2022/05/03 07:33:47;;;;;;;12.00;6.65;;;17.10;99.90;;;;;;5074015;28;20024;-57
2022/05/03 07:36:13;;;;;;;11.55;7.25;;;17.10;99.90;;;;;;5055908;28;20017;-58
2022/05/03 07:38:42;;;;;;;14.15;6.85;;;17.20;99.90;;;;;;5073866;28;20017;-58
2022/05/03 07:41:08;;;;;;;12.90;6.47;;;17.10;99.90;;;;;;5073667;28;20103;-55
2022/05/03 07:43:35;;;;;;;11.07;6.57;;;16.60;99.90;;;;;;5073640;28;20059;-58
2022/05/03 07:46:01;;;;;;;8.68;5.45;;;16.60;99.90;;;;;;5055847;28;20029;-53
2022/05/03 07:48:27;;;;;;;8.93;5.88;;;16.70;99.90;;;;;;5073645;28;20062;-56
2022/05/03 07:50:53;;;;;;;11.60;6.18;;;16.90;99.90;;;;;;5055921;28;20032;-57
2022/05/03 07:53:19;;;;;;;8.90;6.45;;;16.80;99.90;;;;;;5055679;28;20021;-57
2022/05/03 07:55:49;;;;;;;10.20;7.07;;;16.90;99.90;;;;;;5073528;28;20073;-57
2022/05/03 07:58:16;;;;;;;8.30;6.03;;;16.60;99.90;;;;;;5055904;28;20050;-57
2022/05/03 08:00:42;;;;;;;13.32;7.28;;;16.60;99.90;;;;;;5073448;28;20077;-57
2022/05/03 08:06:19;;;;;;;12.37;6.17;;;16.70;99.90;;;;;;5073406;28;20038;-55
2022/05/03 08:08:44;;;;;;;11.27;6.57;;;16.60;99.90;;;;;;5073659;28;20289;-55
2022/05/03 08:11:10;;;;;;;10.48;6.85;;;16.60;99.90;;;;;;5055339;28;20024;-56
2022/05/03 08:13:37;;;;;;;16.85;7.05;;;16.30;99.90;;;;;;5073148;28;20029;-57
2022/05/03 08:16:03;;;;;;;13.20;7.20;;;16.40;99.90;;;;;;5055328;28;20024;-57
2022/05/03 08:18:28;;;;;;;10.88;7.15;;;16.40;99.90;;;;;;5055444;28;20071;-61
2022/05/03 08:20:54;;;;;;;9.85;5.65;;;16.40;99.90;;;;;;5073365;28;20083;-61
2022/05/03 08:23:20;;;;;;;11.32;7.72;;;16.60;99.90;;;;;;5073369;28;20021;-59
2022/05/03 08:25:45;;;;;;;10.07;6.45;;;16.90;99.90;;;;;;5055221;28;20070;-61
2022/05/03 08:28:11;;;;;;;10.60;6.20;;;17.30;99.90;;;;;;5073115;28;20032;-62
2022/05/03 08:30:37;;;;;;;9.77;6.95;;;17.70;99.90;;;;;;5073385;28;20024;-61
2022/05/03 08:33:03;;;;;;;10.50;6.53;;;17.80;99.90;;;;;;5055470;28;20039;-61
2022/05/03 08:35:28;;;;;;;12.80;5.88;;;17.70;99.90;;;;;;5077151;28;20054;-62
2022/05/03 08:43:24;;;;;;;10.60;6.65;;;18.80;99.90;;;;;;5077457;28;20035;-61
2022/05/03 08:45:50;;;;;;;11.75;6.03;;;18.50;99.90;;;;;;5059137;28;20111;-61
2022/05/03 08:48:17;;;;;;;8.73;6.50;;;18.70;99.90;;;;;;5058963;28;20111;-62
2022/05/03 08:50:43;;;;;;;11.45;6.18;;;19.20;99.90;;;;;;5059332;28;20031;-61
2022/05/03 08:53:10;;;;;;;10.80;6.57;;;19.30;99.90;;;;;;5059197;28;20020;-61
2022/05/03 08:55:39;;;;;;;13.07;7.35;;;19.50;99.90;;;;;;5077053;28;20029;-60
2022/05/03 08:58:05;;;;;;;10.85;6.60;;;19.60;99.90;;;;;;5058988;28;20115;-62
2022/05/03 09:00:32;;;;;;;14.07;5.47;;;19.90;99.90;;;;;;5059292;28;20106;-60
2022/05/03 09:02:59;;;;;;;12.90;6.55;;;20.20;99.90;;;;;;5076518;28;20130;-61
2022/05/03 09:05:25;;;;;;;12.55;6.63;;;20.60;99.90;;;;;;5058523;28;20483;-62
2022/05/03 09:07:56;;;;;;;10.13;7.00;;;21.10;99.90;;;;;;5059217;28;20074;-62
2022/05/03 09:11:02;;;;;;;8.88;6.30;;;21.40;99.90;;;;;;5077236;28;20017;-65
2022/05/03 09:13:32;;;;;;;7.38;5.28;;;21.60;99.90;;;;;;5058449;28;20487;-64
2022/05/03 09:16:13;;;;;;;12.13;6.60;;;21.70;99.90;;;;;;5076483;28;20024;-65
2022/05/03 09:18:39;;;;;;;10.05;5.88;;;21.60;99.90;;;;;;5059368;28;20025;-67
2022/05/03 09:24:05;;;;;;;11.02;6.25;;;22.20;99.90;;;;;;5076957;28;20510;-63
2022/05/03 09:26:31;;;;;;;10.15;6.53;;;22.40;99.90;;;;;;5059105;28;20101;-64
2022/05/03 09:29:01;;;;;;;10.10;6.72;;;22.50;99.90;;;;;;5058684;28;20027;-66
2022/05/03 09:31:30;;;;;;;8.77;5.82;;;22.40;99.90;;;;;;5058410;28;20021;-64
2022/05/03 09:33:57;;;;;;;15.20;7.15;;;22.20;99.90;;;;;;5076018;28;20029;-64
2022/05/03 09:36:22;;;;;;;8.77;6.68;;;22.30;99.90;;;;;;5058010;28;20024;-64
2022/05/03 09:38:51;;;;;;;10.52;7.22;;;22.00;99.90;;;;;;5076004;28;20025;-64
2022/05/03 09:41:17;;;;;;;10.73;7.50;;;22.00;99.90;;;;;;5058820;28;20024;-61
2022/05/03 09:44:15;;;;;;;11.43;6.28;;;21.80;99.90;;;;;;5058043;28;20508;-64
2022/05/03 09:46:59;;;;;;;8.57;5.85;;;21.50;99.90;;;;;;5013793;28;20064;-64
2022/05/03 09:49:36;;;;;;;9.30;5.90;;;21.80;99.90;;;;;;5057999;28;20177;-65
2022/05/03 09:52:03;;;;;;;11.23;6.25;;;22.40;99.90;;;;;;5075657;28;20029;-66
2022/05/03 09:54:44;;;;;;;11.48;6.60;;;22.30;99.90;;;;;;5057817;28;20026;-64
2022/05/03 09:57:13;;;;;;;12.90;6.70;;;22.10;99.90;;;;;;5058727;28;20024;-63
2022/05/03 10:00:01;;;;;;;11.77;6.30;;;21.70;99.90;;;;;;5075633;28;20100;-64
2022/05/03 10:02:28;;;;;;;10.85;5.72;;;21.70;99.90;;;;;;5058257;28;20036;-69
2022/05/03 10:04:56;;;;;;;6.53;5.70;;;22.40;99.90;;;;;;5075800;28;20036;-64
2022/05/03 10:07:23;;;;;;;18.00;5.90;;;22.00;99.90;;;;;;5075513;28;20028;-63
2022/05/03 10:09:49;;;;;;;10.07;5.78;;;22.00;99.90;;;;;;5075444;28;20035;-61
2022/05/03 10:12:16;;;;;;;15.05;5.78;;;21.30;99.90;;;;;;5075271;28;20028;-66
2022/05/03 10:14:43;;;;;;;8.63;5.15;;;20.90;99.90;;;;;;5075708;28;20056;-65
2022/05/03 10:22:48;;;;;;;13.05;5.97;;;20.40;99.90;;;;;;5075231;28;20040;-65
2022/05/03 10:25:15;;;;;;;9.32;6.40;;;20.10;99.90;;;;;;5075258;28;20102;-66
2022/05/03 10:27:55;;;;;;;8.85;6.43;;;20.00;99.90;;;;;;5075061;28;20025;-65
2022/05/03 10:30:23;;;;;;;8.25;5.80;;;19.60;99.90;;;;;;5075068;28;20036;-64
2022/05/03 10:33:19;;;;;;;14.55;6.72;;;19.50;99.90;;;;;;5057811;28;20020;-63
2022/05/03 10:35:46;;;;;;;10.00;5.90;;;19.60;99.90;;;;;;5074997;28;20024;-64
2022/05/03 10:38:13;;;;;;;13.50;6.13;;;19.70;99.90;;;;;;5074906;28;20095;-69
2022/05/03 10:40:43;;;;;;;10.13;5.90;;;19.60;99.90;;;;;;5056935;28;20031;-67
2022/05/03 10:43:26;;;;;;;9.73;5.80;;;19.50;99.90;;;;;;5057209;28;20498;-65
2022/05/03 10:45:56;;;;;;;10.32;5.03;;;19.30;99.90;;;;;;5074746;28;20039;-65
2022/05/03 10:48:29;;;;;;;12.93;5.63;;;19.50;99.90;;;;;;5057747;28;20033;-62
2022/05/03 10:51:02;;;;;;;14.23;7.40;;;19.80;99.90;;;;;;5056633;28;20029;-63
2022/05/03 10:53:33;;;;;;;9.60;6.30;;;19.70;99.90;;;;;;5057612;28;20021;-63
2022/05/03 10:56:16;;;;;;;12.40;5.93;;;19.60;99.90;;;;;;5074894;28;20016;-63
2022/05/03 10:58:44;;;;;;;11.15;6.25;;;19.40;99.90;;;;;;5074759;28;20047;-64
2022/05/03 11:01:20;;;;;;;10.82;5.97;;;19.30;99.90;;;;;;5074331;28;20028;-63
2022/05/03 11:03:48;;;;;;;8.45;5.30;;;19.40;99.90;;;;;;5057564;28;20024;-64
2022/05/03 11:06:21;;;;;;;10.35;5.85;;;19.70;99.90;;;;;;5056894;28;20092;-63
2022/05/03 11:09:05;;;;;;;14.55;6.57;;;20.00;99.90;;;;;;5074572;28;20028;-64
2022/05/03 11:11:42;;;;;;;11.68;6.10;;;20.00;99.90;;;;;;5074133;28;20028;-64
2022/05/03 11:14:20;;;;;;;14.02;5.43;;;20.10;99.90;;;;;;5074152;28;20032;-64
2022/05/03 11:17:09;;;;;;;8.18;5.45;;;20.00;99.90;;;;;;5074084;28;20028;-64
2022/05/03 11:19:49;;;;;;;8.90;5.53;;;20.10;99.90;;;;;;5043579;28;20082;-64
2022/05/03 11:22:22;;;;;;;12.73;6.10;;;20.20;99.90;;;;;;5073981;28;20024;-64
2022/05/03 11:24:53;;;;;;;10.00;6.07;;;20.30;99.90;;;;;;5074054;28;20475;-64
2022/05/03 11:27:20;;;;;;;10.52;5.82;;;20.30;99.90;;;;;;5073927;28;20047;-64
2022/05/03 11:30:01;;;;;;;13.68;6.68;;;20.20;99.90;;;;;;5055952;28;20032;-65
2022/05/03 11:32:32;;;;;;;6.95;5.20;;;20.20;99.90;;;;;;5055772;28;20060;-64
2022/05/03 11:35:02;;;;;;;7.38;5.20;;;20.20;99.90;;;;;;5056100;28;20074;-64
2022/05/03 11:37:28;;;;;;;9.88;6.55;;;20.50;99.90;;;;;;5055904;28;20059;-64
2022/05/03 11:40:04;;;;;;;13.88;6.32;;;20.60;99.90;;;;;;5073678;28;20044;-64
2022/05/03 11:42:36;;;;;;;12.05;6.13;;;20.80;99.90;;;;;;5073586;28;20029;-64
2022/05/03 11:45:01;;;;;;;14.77;5.80;;;20.70;99.90;;;;;;5056124;28;20494;-63
2022/05/03 11:47:28;;;;;;;13.52;6.35;;;20.80;99.90;;;;;;5055763;28;20033;-63
2022/05/03 11:49:56;;;;;;;9.65;6.30;;;20.80;99.90;;;;;;5055876;28;20123;-64
2022/05/03 11:57:53;;;;;;;16.85;6.40;;;20.70;99.90;;;;;;5076332;28;20049;-63
2022/05/03 12:00:18;;;;;;;13.80;7.03;;;20.70;99.90;;;;;;5064262;28;20021;-64
2022/05/03 12:02:45;;;;;;;9.40;6.15;;;20.60;99.90;;;;;;5064291;28;20159;-65
2022/05/03 12:05:12;;;;;;;12.27;6.82;;;20.50;99.90;;;;;;5082438;28;20160;-64
2022/05/03 12:07:43;;;;;;;13.57;6.63;;;20.40;99.90;;;;;;5064205;28;20064;-64
2022/05/03 12:10:19;;;;;;;10.63;6.40;;;20.30;99.90;;;;;;5064340;28;20024;-64
2022/05/03 12:13:08;;;;;;;9.45;6.72;;;20.30;99.90;;;;;;5081065;28;20020;-64
2022/05/03 12:15:36;;;;;;;13.50;5.82;;;20.20;99.90;;;;;;5074571;28;20012;-64
2022/05/03 12:18:09;;;;;;;9.75;6.35;;;20.40;99.90;;;;;;5063226;28;20016;-62
2022/05/03 12:20:43;;;;;;;10.98;5.88;;;20.50;99.90;;;;;;5064035;28;20055;-64
2022/05/03 12:23:17;;;;;;;9.35;5.78;;;20.70;99.90;;;;;;5067049;28;20039;-63
2022/05/03 12:25:45;;;;;;;7.10;5.65;;;20.80;99.90;;;;;;5064878;28;20390;-64
2022/05/03 12:28:11;;;;;;;6.07;4.95;;;21.00;99.90;;;;;;5081955;28;20053;-64
2022/05/03 12:30:37;;;;;;;7.60;5.68;;;21.10;99.90;;;;;;5084504;28;20028;-64
2022/05/03 12:33:08;;;;;;;9.10;5.60;;;21.20;99.90;;;;;;5075476;28;20052;-64
2022/05/03 12:35:36;;;;;;;6.68;5.13;;;21.20;99.90;;;;;;5075186;28;20020;-65
2022/05/03 12:38:18;;;;;;;21.85;6.50;;;21.20;99.90;;;;;;5075674;28;20020;-65
2022/05/03 12:40:53;;;;;;;8.85;6.15;;;21.20;99.90;;;;;;5075724;28;20024;-66
2022/05/03 12:43:23;;;;;;;12.27;5.95;;;21.20;99.90;;;;;;5075235;28;20073;-65
2022/05/03 12:46:00;;;;;;;13.45;6.55;;;21.20;99.90;;;;;;5075410;28;20062;-61
2022/05/03 12:48:27;;;;;;;10.48;6.30;;;21.00;99.90;;;;;;5093474;28;20102;-67
2022/05/03 12:50:53;;;;;;;9.50;5.70;;;21.00;99.90;;;;;;5093035;28;20047;-66
2022/05/03 12:53:24;;;;;;;13.43;7.13;;;21.10;99.80;;;;;;5074980;28;20024;-64
2022/05/03 12:55:50;;;;;;;9.77;6.70;;;21.20;99.30;;;;;;5075094;28;20474;-68
2022/05/03 12:58:27;;;;;;;10.02;5.40;;;21.20;99.20;;;;;;5075658;28;20157;-64
2022/05/03 13:00:59;;;;;;;13.48;5.72;;;21.10;99.90;;;;;;5075055;28;20092;-64
2022/05/03 13:03:25;;;;;;;7.55;4.80;;;21.20;98.60;;;;;;5074975;28;20036;-65
2022/05/03 13:05:51;;;;;;;8.45;4.97;;;21.30;99.90;;;;;;5075315;28;20043;-63
2022/05/03 13:08:18;;;;;;;10.52;5.93;;;21.40;99.90;;;;;;5075828;28;20024;-65
2022/05/03 13:10:44;;;;;;;9.30;5.72;;;21.50;99.50;;;;;;5075013;28;20053;-63
2022/05/03 13:13:10;;;;;;;9.65;6.15;;;21.50;98.60;;;;;;5074169;28;20035;-64
2022/05/03 13:15:37;;;;;;;9.35;5.93;;;21.40;99.90;;;;;;5074949;28;20103;-63
2022/05/03 13:18:03;;;;;;;9.50;5.82;;;21.30;99.00;;;;;;5074836;28;20110;-62
2022/05/03 13:20:29;;;;;;;10.10;5.68;;;21.20;98.10;;;;;;5094028;28;20481;-63
2022/05/03 13:22:55;;;;;;;7.85;5.78;;;21.10;98.90;;;;;;5078547;28;20039;-63
2022/05/03 13:25:22;;;;;;;9.40;5.53;;;21.10;99.30;;;;;;5096916;28;20028;-64
2022/05/03 13:27:48;;;;;;;8.98;6.15;;;21.20;99.40;;;;;;5078478;28;20031;-63
2022/05/03 13:30:15;;;;;;;13.70;6.32;;;21.10;98.50;;;;;;5096523;28;20020;-67
2022/05/03 13:32:41;;;;;;;9.10;5.50;;;20.90;99.50;;;;;;5096393;28;20023;-66
2022/05/03 13:35:08;;;;;;;10.30;5.28;;;20.80;99.30;;;;;;5078300;28;20024;-63